McKinleyville, California
Current Conditions -  °F | °C
As of 6:53 AM on Wednesday 22 Oct 2014 (Local Time) from KACV Reporting Station
Overcast Overcast  
Wind Chill: 62°   Ceiling: 6000
Heat Index: 62°   Visibility: 10mi
Dew Point: 46°   Wind: 12mph
Humidity: 56%   Direction: 140°SE
Pressure: 29.99"   Gusts: NA
Location:  40.94°N, 124.1°W
Report Text: KACV 221353Z AUTO 14010KT 10SM OVC060 17/08 A2999 RMK AO2 SLP158 T01670078
Loading
Personal Weather Stations






























Interactive Weather Map
Tropical Storm Tracking
New forecast layout! Learn more

10-Day Weather Forecast

Advertisements
Track Severe Weather on mobile